This is the latest recevied weather packets stored in our database for station/object W8BS. If no packets are shown the sender has not sent any weather packets the latest 10 day(s).
| Time | Temp. | Humidity | Pressure | Rain* | Wind** | Luminosity | Snow |
|---|---|---|---|---|---|---|---|
| 1777671914 | 12.78° C | 57% | 1010.7 hPa | 0 mm | - | 59 W/m² | - |
| 1777671610 | 12.78° C | 54% | 1010.6 hPa | 0 mm | - | 75 W/m² | - |
| 1777671307 | 13.33° C | 51% | 1010.2 hPa | 0 mm | - | 97 W/m² | - |
| 1777671003 | 13.89° C | 48% | 1010.2 hPa | 0 mm | - | 167 W/m² | - |
| 1777670699 | 13.33° C | 49% | 1010.1 hPa | 0 mm | - | 159 W/m² | - |
| 1777670396 | 13.33° C | 49% | 1010.3 hPa | 0 mm | - | 75 W/m² | - |
| 1777670093 | 13.89° C | 46% | 1009.9 hPa | 0 mm | - | 127 W/m² | - |
| 1777669791 | 13.89° C | 45% | 1010 hPa | 0 mm | - | 164 W/m² | - |
| 1777669487 | 14.44° C | 43% | 1009.9 hPa | 0 mm | - | 208 W/m² | - |
| 1777669184 | 14.44° C | 43% | 1009.8 hPa | 0 mm | - | 249 W/m² | - |
| 1777668881 | 14.44° C | 42% | 1009.9 hPa | 0 mm | - | 220 W/m² | - |
| 1777668578 | 14.44° C | 41% | 1009.7 hPa | 0 mm | - | 209 W/m² | - |
| 1777668274 | 15° C | 42% | 1009.7 hPa | 0 mm | - | 193 W/m² | - |
| 1777667970 | 15.56° C | 40% | 1009.5 hPa | 0 mm | - | 179 W/m² | - |
| 1777667667 | 16.11° C | 38% | 1009.4 hPa | 0 mm | - | 205 W/m² | - |
| 1777667365 | 16.11° C | 37% | 1009.3 hPa | 0 mm | - | 322 W/m² | - |
| 1777667061 | 16.67° C | 38% | 1009.4 hPa | 0 mm | - | 413 W/m² | - |
| 1777666758 | 16.67° C | 38% | 1009.5 hPa | 0 mm | - | 257 W/m² | - |
| 1777666455 | 16.11° C | 38% | 1009.3 hPa | 0 mm | - | 463 W/m² | - |
| 1777666152 | 16.11° C | 37% | 1009.5 hPa | 0 mm | - | 513 W/m² | - |
| 1777665849 | 15.56° C | 37% | 1009.4 hPa | 0 mm | - | 689 W/m² | - |
| 1777665547 | 15° C | 39% | 1009.7 hPa | 0 mm | - | 704 W/m² | - |
| 1777665243 | 15.56° C | 38% | 1009.5 hPa | 0 mm | - | 159 W/m² | - |
| 1777664938 | 16.11° C | 36% | 1009.5 hPa | 0 mm | - | 664 W/m² | - |
| 1777664635 | 16.11° C | 38% | 1009.9 hPa | 0 mm | - | 307 W/m² | - |
* Rain latest hour (hover to see other rain measurements)
** Current wind speed in m/s (hover to see current wind gust speed)